Vamdrup, Denmark
Current Conditions -  °F | °C
As of 6:50 AM on Thursday 18 Dec 2014 (Local Time) from EKSP Reporting Station
Haze Haze  
Wind Chill: 41°   Ceiling: 200
Heat Index: 46°   Visibility: 0.93mi
Dew Point: 46°   Wind: 12mph
Humidity: 100%   Direction: 230°SW
Pressure: 29.59"   Gusts: NA
Location:  55.43°N, 9.28°E
Report Text: EKSP 180550Z 23010KT 1500 BR BKN002 08/08 Q1002 TEMPO1200 BKN004
Loading
Personal Weather Stations






























Interactive Weather Map New forecast layout! Learn more

10-Day Weather Forecast

Advertisements
Track Severe Weather on mobile